sensor_id;sensor_type;location;lat;lon;timestamp;P1;durP1;ratioP1;P2;durP2;ratioP2
44222;SDS011;29895;48.804;9.386;2024-02-26T00:01:25;3.13;;;1.80;;
44222;SDS011;29895;48.804;9.386;2024-02-26T00:03:51;4.78;;;1.95;;
44222;SDS011;29895;48.804;9.386;2024-02-26T00:06:17;3.33;;;1.63;;
44222;SDS011;29895;48.804;9.386;2024-02-26T00:08:43;2.35;;;1.55;;
44222;SDS011;29895;48.804;9.386;2024-02-26T00:11:09;3.78;;;1.90;;
44222;SDS011;29895;48.804;9.386;2024-02-26T00:13:35;2.55;;;1.33;;
44222;SDS011;29895;48.804;9.386;2024-02-26T00:16:02;4.13;;;1.77;;
44222;SDS011;29895;48.804;9.386;2024-02-26T00:18:28;3.28;;;1.70;;
44222;SDS011;29895;48.804;9.386;2024-02-26T00:20:54;3.40;;;1.80;;
44222;SDS011;29895;48.804;9.386;2024-02-26T00:23:20;5.25;;;1.60;;
44222;SDS011;29895;48.804;9.386;2024-02-26T00:25:45;4.53;;;1.63;;
44222;SDS011;29895;48.804;9.386;2024-02-26T00:28:11;3.15;;;1.83;;
44222;SDS011;29895;48.804;9.386;2024-02-26T00:30:38;2.80;;;1.48;;
44222;SDS011;29895;48.804;9.386;2024-02-26T00:33:04;3.47;;;1.65;;
44222;SDS011;29895;48.804;9.386;2024-02-26T00:35:29;4.47;;;1.75;;
44222;SDS011;29895;48.804;9.386;2024-02-26T00:37:55;3.05;;;1.52;;
44222;SDS011;29895;48.804;9.386;2024-02-26T00:40:21;2.92;;;2.00;;
44222;SDS011;29895;48.804;9.386;2024-02-26T00:42:46;3.25;;;1.70;;
44222;SDS011;29895;48.804;9.386;2024-02-26T00:45:13;3.90;;;1.80;;
44222;SDS011;29895;48.804;9.386;2024-02-26T00:47:39;5.72;;;1.90;;
44222;SDS011;29895;48.804;9.386;2024-02-26T00:50:09;3.85;;;1.80;;
44222;SDS011;29895;48.804;9.386;2024-02-26T00:52:35;3.40;;;1.80;;
44222;SDS011;29895;48.804;9.386;2024-02-26T00:55:02;3.20;;;1.60;;
44222;SDS011;29895;48.804;9.386;2024-02-26T00:57:28;2.75;;;1.48;;
44222;SDS011;29895;48.804;9.386;2024-02-26T00:59:53;3.80;;;1.90;;
44222;SDS011;29895;48.804;9.386;2024-02-26T01:02:21;3.95;;;1.98;;
44222;SDS011;29895;48.804;9.386;2024-02-26T01:04:47;3.97;;;2.20;;
44222;SDS011;29895;48.804;9.386;2024-02-26T01:07:12;3.17;;;1.80;;
44222;SDS011;29895;48.804;9.386;2024-02-26T01:09:38;2.28;;;1.33;;
44222;SDS011;29895;48.804;9.386;2024-02-26T01:12:04;3.40;;;1.65;;
44222;SDS011;29895;48.804;9.386;2024-02-26T01:14:29;2.50;;;1.40;;
44222;SDS011;29895;48.804;9.386;2024-02-26T01:16:55;4.38;;;1.55;;
44222;SDS011;29895;48.804;9.386;2024-02-26T01:19:21;2.45;;;1.38;;
44222;SDS011;29895;48.804;9.386;2024-02-26T01:21:46;2.15;;;1.48;;
44222;SDS011;29895;48.804;9.386;2024-02-26T01:24:12;2.30;;;1.20;;
44222;SDS011;29895;48.804;9.386;2024-02-26T01:26:37;2.78;;;1.70;;
44222;SDS011;29895;48.804;9.386;2024-02-26T01:29:04;3.33;;;1.40;;
44222;SDS011;29895;48.804;9.386;2024-02-26T01:31:29;4.97;;;1.70;;
44222;SDS011;29895;48.804;9.386;2024-02-26T01:33:55;1.98;;;1.33;;
44222;SDS011;29895;48.804;9.386;2024-02-26T01:36:21;3.08;;;1.10;;
44222;SDS011;29895;48.804;9.386;2024-02-26T01:38:46;3.63;;;1.75;;
44222;SDS011;29895;48.804;9.386;2024-02-26T01:41:13;2.75;;;1.30;;
44222;SDS011;29895;48.804;9.386;2024-02-26T01:43:39;1.80;;;1.00;;
44222;SDS011;29895;48.804;9.386;2024-02-26T01:46:05;3.28;;;1.55;;
44222;SDS011;29895;48.804;9.386;2024-02-26T01:48:34;2.80;;;1.70;;
44222;SDS011;29895;48.804;9.386;2024-02-26T01:50:59;2.90;;;1.63;;
44222;SDS011;29895;48.804;9.386;2024-02-26T01:53:25;3.97;;;1.35;;
44222;SDS011;29895;48.804;9.386;2024-02-26T01:55:51;2.83;;;1.42;;
44222;SDS011;29895;48.804;9.386;2024-02-26T01:58:17;4.03;;;1.45;;
44222;SDS011;29895;48.804;9.386;2024-02-26T02:00:42;3.42;;;1.60;;
44222;SDS011;29895;48.804;9.386;2024-02-26T02:03:08;2.33;;;1.30;;
44222;SDS011;29895;48.804;9.386;2024-02-26T02:05:34;3.65;;;1.35;;
44222;SDS011;29895;48.804;9.386;2024-02-26T02:08:06;4.07;;;1.60;;
44222;SDS011;29895;48.804;9.386;2024-02-26T02:10:32;2.83;;;1.58;;
44222;SDS011;29895;48.804;9.386;2024-02-26T02:12:58;5.25;;;1.58;;
44222;SDS011;29895;48.804;9.386;2024-02-26T02:15:24;3.53;;;1.58;;
44222;SDS011;29895;48.804;9.386;2024-02-26T02:17:50;3.28;;;1.55;;
44222;SDS011;29895;48.804;9.386;2024-02-26T02:20:16;4.55;;;1.50;;
44222;SDS011;29895;48.804;9.386;2024-02-26T02:22:44;2.50;;;1.50;;
44222;SDS011;29895;48.804;9.386;2024-02-26T02:25:10;2.72;;;1.48;;
44222;SDS011;29895;48.804;9.386;2024-02-26T02:27:35;3.88;;;1.60;;
44222;SDS011;29895;48.804;9.386;2024-02-26T02:30:01;4.72;;;1.40;;
44222;SDS011;29895;48.804;9.386;2024-02-26T02:32:28;2.20;;;1.38;;
44222;SDS011;29895;48.804;9.386;2024-02-26T02:34:55;3.58;;;1.38;;
44222;SDS011;29895;48.804;9.386;2024-02-26T02:37:21;2.15;;;1.50;;
44222;SDS011;29895;48.804;9.386;2024-02-26T02:39:47;3.45;;;1.70;;
44222;SDS011;29895;48.804;9.386;2024-02-26T02:42:12;3.03;;;1.67;;
44222;SDS011;29895;48.804;9.386;2024-02-26T02:44:38;2.65;;;1.50;;
44222;SDS011;29895;48.804;9.386;2024-02-26T02:47:04;4.32;;;1.35;;
44222;SDS011;29895;48.804;9.386;2024-02-26T02:49:29;2.75;;;1.40;;
44222;SDS011;29895;48.804;9.386;2024-02-26T02:51:55;2.63;;;1.58;;
44222;SDS011;29895;48.804;9.386;2024-02-26T02:54:22;4.05;;;1.42;;
44222;SDS011;29895;48.804;9.386;2024-02-26T02:56:48;3.55;;;1.50;;
44222;SDS011;29895;48.804;9.386;2024-02-26T02:59:14;3.55;;;1.52;;
44222;SDS011;29895;48.804;9.386;2024-02-26T03:01:39;4.00;;;1.45;;
44222;SDS011;29895;48.804;9.386;2024-02-26T03:04:05;4.57;;;1.60;;
44222;SDS011;29895;48.804;9.386;2024-02-26T03:06:32;3.72;;;1.20;;
44222;SDS011;29895;48.804;9.386;2024-02-26T03:08:57;4.57;;;1.92;;
44222;SDS011;29895;48.804;9.386;2024-02-26T03:11:23;2.22;;;1.40;;
44222;SDS011;29895;48.804;9.386;2024-02-26T03:13:48;3.72;;;1.20;;
44222;SDS011;29895;48.804;9.386;2024-02-26T03:16:14;3.47;;;1.58;;
44222;SDS011;29895;48.804;9.386;2024-02-26T03:18:41;4.53;;;1.80;;
44222;SDS011;29895;48.804;9.386;2024-02-26T03:21:07;5.00;;;1.15;;
44222;SDS011;29895;48.804;9.386;2024-02-26T03:23:33;3.03;;;1.27;;
44222;SDS011;29895;48.804;9.386;2024-02-26T03:26:03;1.83;;;1.13;;
44222;SDS011;29895;48.804;9.386;2024-02-26T03:28:29;3.70;;;1.42;;
44222;SDS011;29895;48.804;9.386;2024-02-26T03:30:56;3.45;;;1.65;;
44222;SDS011;29895;48.804;9.386;2024-02-26T03:33:21;4.25;;;1.42;;
44222;SDS011;29895;48.804;9.386;2024-02-26T03:35:47;2.55;;;1.30;;
44222;SDS011;29895;48.804;9.386;2024-02-26T03:38:13;3.60;;;1.67;;
44222;SDS011;29895;48.804;9.386;2024-02-26T03:40:38;2.22;;;1.40;;
44222;SDS011;29895;48.804;9.386;2024-02-26T03:43:04;4.15;;;1.20;;
44222;SDS011;29895;48.804;9.386;2024-02-26T03:45:32;4.70;;;1.70;;
44222;SDS011;29895;48.804;9.386;2024-02-26T03:47:58;1.60;;;1.20;;
44222;SDS011;29895;48.804;9.386;2024-02-26T03:50:23;1.85;;;1.30;;
44222;SDS011;29895;48.804;9.386;2024-02-26T03:52:49;5.70;;;1.77;;
44222;SDS011;29895;48.804;9.386;2024-02-26T03:55:15;2.40;;;1.50;;
44222;SDS011;29895;48.804;9.386;2024-02-26T03:57:43;3.03;;;1.27;;
44222;SDS011;29895;48.804;9.386;2024-02-26T04:00:08;3.50;;;1.50;;
44222;SDS011;29895;48.804;9.386;2024-02-26T04:02:35;1.88;;;1.40;;
44222;SDS011;29895;48.804;9.386;2024-02-26T04:05:00;3.22;;;1.50;;
44222;SDS011;29895;48.804;9.386;2024-02-26T04:07:26;4.55;;;1.88;;
44222;SDS011;29895;48.804;9.386;2024-02-26T04:09:51;5.93;;;1.58;;
44222;SDS011;29895;48.804;9.386;2024-02-26T04:12:17;8.43;;;2.00;;
44222;SDS011;29895;48.804;9.386;2024-02-26T04:14:45;4.72;;;1.60;;
44222;SDS011;29895;48.804;9.386;2024-02-26T04:17:11;2.83;;;1.60;;
44222;SDS011;29895;48.804;9.386;2024-02-26T04:19:36;3.15;;;1.70;;
44222;SDS011;29895;48.804;9.386;2024-02-26T04:22:02;2.78;;;1.67;;
44222;SDS011;29895;48.804;9.386;2024-02-26T04:24:28;3.08;;;1.40;;
44222;SDS011;29895;48.804;9.386;2024-02-26T04:26:53;4.85;;;1.63;;
44222;SDS011;29895;48.804;9.386;2024-02-26T04:29:19;5.30;;;1.90;;
44222;SDS011;29895;48.804;9.386;2024-02-26T04:31:45;3.20;;;1.50;;
44222;SDS011;29895;48.804;9.386;2024-02-26T04:34:11;5.30;;;1.60;;
44222;SDS011;29895;48.804;9.386;2024-02-26T04:36:37;3.25;;;1.98;;
44222;SDS011;29895;48.804;9.386;2024-02-26T04:39:03;3.00;;;2.13;;
44222;SDS011;29895;48.804;9.386;2024-02-26T04:41:28;3.20;;;1.90;;
44222;SDS011;29895;48.804;9.386;2024-02-26T04:43:54;4.68;;;2.83;;
44222;SDS011;29895;48.804;9.386;2024-02-26T04:46:19;5.68;;;2.45;;
44222;SDS011;29895;48.804;9.386;2024-02-26T04:48:47;2.55;;;1.80;;
44222;SDS011;29895;48.804;9.386;2024-02-26T04:51:12;3.88;;;2.03;;
44222;SDS011;29895;48.804;9.386;2024-02-26T04:53:38;3.03;;;1.75;;
44222;SDS011;29895;48.804;9.386;2024-02-26T04:56:04;2.35;;;1.58;;
44222;SDS011;29895;48.804;9.386;2024-02-26T04:58:30;3.28;;;1.60;;
44222;SDS011;29895;48.804;9.386;2024-02-26T05:00:55;3.38;;;1.63;;
44222;SDS011;29895;48.804;9.386;2024-02-26T05:03:21;3.30;;;1.80;;
44222;SDS011;29895;48.804;9.386;2024-02-26T05:05:47;2.05;;;1.63;;
44222;SDS011;29895;48.804;9.386;2024-02-26T05:08:12;2.40;;;1.30;;
44222;SDS011;29895;48.804;9.386;2024-02-26T05:10:38;6.57;;;1.92;;
44222;SDS011;29895;48.804;9.386;2024-02-26T05:13:06;3.83;;;1.92;;
44222;SDS011;29895;48.804;9.386;2024-02-26T05:15:32;4.68;;;1.60;;
44222;SDS011;29895;48.804;9.386;2024-02-26T05:17:57;3.45;;;2.00;;
44222;SDS011;29895;48.804;9.386;2024-02-26T05:20:23;3.25;;;1.88;;
44222;SDS011;29895;48.804;9.386;2024-02-26T05:22:49;2.60;;;1.65;;
44222;SDS011;29895;48.804;9.386;2024-02-26T05:25:15;7.10;;;2.17;;
44222;SDS011;29895;48.804;9.386;2024-02-26T05:27:42;3.17;;;1.80;;
44222;SDS011;29895;48.804;9.386;2024-02-26T05:30:09;5.88;;;1.95;;
44222;SDS011;29895;48.804;9.386;2024-02-26T05:32:35;2.72;;;1.80;;
44222;SDS011;29895;48.804;9.386;2024-02-26T05:35:01;4.30;;;2.08;;
44222;SDS011;29895;48.804;9.386;2024-02-26T05:37:28;3.08;;;2.10;;
44222;SDS011;29895;48.804;9.386;2024-02-26T05:39:54;4.47;;;2.38;;
44222;SDS011;29895;48.804;9.386;2024-02-26T05:42:20;6.43;;;2.30;;
44222;SDS011;29895;48.804;9.386;2024-02-26T05:44:46;3.90;;;2.13;;
44222;SDS011;29895;48.804;9.386;2024-02-26T05:47:11;2.95;;;1.98;;
44222;SDS011;29895;48.804;9.386;2024-02-26T05:49:38;3.75;;;2.15;;
44222;SDS011;29895;48.804;9.386;2024-02-26T05:52:04;3.20;;;1.95;;
44222;SDS011;29895;48.804;9.386;2024-02-26T05:54:30;3.58;;;2.20;;
44222;SDS011;29895;48.804;9.386;2024-02-26T05:56:56;2.80;;;1.83;;
44222;SDS011;29895;48.804;9.386;2024-02-26T05:59:22;3.40;;;2.38;;
44222;SDS011;29895;48.804;9.386;2024-02-26T06:01:48;6.53;;;2.65;;
44222;SDS011;29895;48.804;9.386;2024-02-26T06:04:14;4.80;;;2.10;;
44222;SDS011;29895;48.804;9.386;2024-02-26T06:06:39;5.43;;;2.67;;
44222;SDS011;29895;48.804;9.386;2024-02-26T06:09:05;5.07;;;2.50;;
44222;SDS011;29895;48.804;9.386;2024-02-26T06:11:31;5.20;;;2.55;;
44222;SDS011;29895;48.804;9.386;2024-02-26T06:13:59;5.22;;;2.15;;
44222;SDS011;29895;48.804;9.386;2024-02-26T06:16:25;3.08;;;2.03;;
44222;SDS011;29895;48.804;9.386;2024-02-26T06:18:51;5.50;;;2.53;;
44222;SDS011;29895;48.804;9.386;2024-02-26T06:21:16;6.30;;;2.78;;
44222;SDS011;29895;48.804;9.386;2024-02-26T06:23:42;4.82;;;1.83;;
44222;SDS011;29895;48.804;9.386;2024-02-26T06:26:07;4.57;;;2.30;;
44222;SDS011;29895;48.804;9.386;2024-02-26T06:28:33;4.88;;;3.20;;
44222;SDS011;29895;48.804;9.386;2024-02-26T06:31:00;8.15;;;3.15;;
44222;SDS011;29895;48.804;9.386;2024-02-26T06:33:26;8.07;;;4.25;;
44222;SDS011;29895;48.804;9.386;2024-02-26T06:35:52;4.70;;;3.03;;
44222;SDS011;29895;48.804;9.386;2024-02-26T06:38:17;5.35;;;2.47;;
44222;SDS011;29895;48.804;9.386;2024-02-26T06:40:46;5.25;;;2.40;;
44222;SDS011;29895;48.804;9.386;2024-02-26T06:43:12;4.03;;;2.88;;
44222;SDS011;29895;48.804;9.386;2024-02-26T06:45:37;3.92;;;2.60;;
44222;SDS011;29895;48.804;9.386;2024-02-26T06:48:03;3.88;;;2.60;;
44222;SDS011;29895;48.804;9.386;2024-02-26T06:50:29;3.78;;;2.22;;
44222;SDS011;29895;48.804;9.386;2024-02-26T06:52:55;8.80;;;2.60;;
44222;SDS011;29895;48.804;9.386;2024-02-26T06:55:20;5.95;;;2.95;;
44222;SDS011;29895;48.804;9.386;2024-02-26T06:57:46;4.63;;;2.35;;
44222;SDS011;29895;48.804;9.386;2024-02-26T07:00:12;6.30;;;2.67;;
44222;SDS011;29895;48.804;9.386;2024-02-26T07:02:40;7.93;;;3.10;;
44222;SDS011;29895;48.804;9.386;2024-02-26T07:05:06;6.60;;;2.80;;
44222;SDS011;29895;48.804;9.386;2024-02-26T07:07:32;4.93;;;2.75;;
44222;SDS011;29895;48.804;9.386;2024-02-26T07:09:57;5.20;;;2.55;;
44222;SDS011;29895;48.804;9.386;2024-02-26T07:12:23;4.80;;;2.50;;
44222;SDS011;29895;48.804;9.386;2024-02-26T07:14:49;7.57;;;2.90;;
44222;SDS011;29895;48.804;9.386;2024-02-26T07:17:15;5.53;;;3.00;;
44222;SDS011;29895;48.804;9.386;2024-02-26T07:19:41;11.95;;;3.20;;
44222;SDS011;29895;48.804;9.386;2024-02-26T07:22:07;7.82;;;2.90;;
44222;SDS011;29895;48.804;9.386;2024-02-26T07:24:33;3.78;;;2.22;;
44222;SDS011;29895;48.804;9.386;2024-02-26T07:26:59;3.63;;;2.25;;
44222;SDS011;29895;48.804;9.386;2024-02-26T07:29:25;4.95;;;2.10;;
44222;SDS011;29895;48.804;9.386;2024-02-26T07:31:50;4.68;;;1.92;;
44222;SDS011;29895;48.804;9.386;2024-02-26T07:34:16;3.88;;;2.20;;
44222;SDS011;29895;48.804;9.386;2024-02-26T07:36:42;5.03;;;2.00;;
44222;SDS011;29895;48.804;9.386;2024-02-26T07:39:07;5.28;;;1.70;;
44222;SDS011;29895;48.804;9.386;2024-02-26T07:41:33;3.53;;;1.65;;
44222;SDS011;29895;48.804;9.386;2024-02-26T07:43:59;5.40;;;2.08;;
44222;SDS011;29895;48.804;9.386;2024-02-26T07:46:24;8.25;;;4.10;;
44222;SDS011;29895;48.804;9.386;2024-02-26T07:48:50;11.80;;;6.03;;
44222;SDS011;29895;48.804;9.386;2024-02-26T07:51:16;5.30;;;3.00;;
44222;SDS011;29895;48.804;9.386;2024-02-26T07:53:44;4.10;;;2.15;;
44222;SDS011;29895;48.804;9.386;2024-02-26T07:56:10;3.67;;;2.10;;
44222;SDS011;29895;48.804;9.386;2024-02-26T07:58:36;4.38;;;1.73;;
44222;SDS011;29895;48.804;9.386;2024-02-26T08:01:01;4.40;;;1.92;;
44222;SDS011;29895;48.804;9.386;2024-02-26T08:03:27;5.82;;;1.77;;
44222;SDS011;29895;48.804;9.386;2024-02-26T08:05:53;5.72;;;2.20;;
44222;SDS011;29895;48.804;9.386;2024-02-26T08:08:19;6.00;;;1.88;;
44222;SDS011;29895;48.804;9.386;2024-02-26T08:10:45;5.65;;;2.53;;
44222;SDS011;29895;48.804;9.386;2024-02-26T08:13:11;8.80;;;3.17;;
44222;SDS011;29895;48.804;9.386;2024-02-26T08:15:36;10.80;;;4.13;;
44222;SDS011;29895;48.804;9.386;2024-02-26T08:18:02;9.05;;;4.43;;
44222;SDS011;29895;48.804;9.386;2024-02-26T08:20:31;12.65;;;4.97;;
44222;SDS011;29895;48.804;9.386;2024-02-26T08:22:57;12.10;;;5.30;;
44222;SDS011;29895;48.804;9.386;2024-02-26T08:25:23;10.80;;;5.30;;
44222;SDS011;29895;48.804;9.386;2024-02-26T08:27:49;11.30;;;5.85;;
44222;SDS011;29895;48.804;9.386;2024-02-26T08:30:15;11.13;;;5.13;;
44222;SDS011;29895;48.804;9.386;2024-02-26T08:32:48;10.93;;;5.30;;
44222;SDS011;29895;48.804;9.386;2024-02-26T08:35:13;11.50;;;5.13;;
44222;SDS011;29895;48.804;9.386;2024-02-26T08:37:39;16.63;;;6.63;;
44222;SDS011;29895;48.804;9.386;2024-02-26T08:40:06;11.82;;;5.07;;
44222;SDS011;29895;48.804;9.386;2024-02-26T08:42:32;9.10;;;4.88;;
44222;SDS011;29895;48.804;9.386;2024-02-26T08:44:57;8.30;;;4.07;;
44222;SDS011;29895;48.804;9.386;2024-02-26T08:47:26;6.45;;;3.50;;
44222;SDS011;29895;48.804;9.386;2024-02-26T08:49:53;8.02;;;3.70;;
44222;SDS011;29895;48.804;9.386;2024-02-26T08:52:19;7.97;;;3.30;;
44222;SDS011;29895;48.804;9.386;2024-02-26T08:54:44;9.38;;;4.28;;
44222;SDS011;29895;48.804;9.386;2024-02-26T08:57:10;8.05;;;3.40;;
44222;SDS011;29895;48.804;9.386;2024-02-26T08:59:35;8.13;;;3.38;;
44222;SDS011;29895;48.804;9.386;2024-02-26T09:02:01;9.75;;;3.35;;
44222;SDS011;29895;48.804;9.386;2024-02-26T09:04:27;9.27;;;4.20;;
44222;SDS011;29895;48.804;9.386;2024-02-26T09:06:53;6.30;;;3.67;;
44222;SDS011;29895;48.804;9.386;2024-02-26T09:09:19;7.07;;;3.90;;
44222;SDS011;29895;48.804;9.386;2024-02-26T09:11:45;7.78;;;3.70;;
44222;SDS011;29895;48.804;9.386;2024-02-26T09:14:12;10.32;;;4.10;;
44222;SDS011;29895;48.804;9.386;2024-02-26T09:16:37;6.45;;;3.70;;
44222;SDS011;29895;48.804;9.386;2024-02-26T09:19:03;5.47;;;2.95;;
44222;SDS011;29895;48.804;9.386;2024-02-26T09:21:29;5.45;;;2.20;;
44222;SDS011;29895;48.804;9.386;2024-02-26T09:23:55;5.57;;;2.15;;
44222;SDS011;29895;48.804;9.386;2024-02-26T09:26:21;4.97;;;2.20;;
44222;SDS011;29895;48.804;9.386;2024-02-26T09:28:46;4.88;;;1.80;;
44222;SDS011;29895;48.804;9.386;2024-02-26T09:31:13;3.05;;;2.00;;
44222;SDS011;29895;48.804;9.386;2024-02-26T09:33:41;6.05;;;2.50;;
44222;SDS011;29895;48.804;9.386;2024-02-26T09:36:07;3.80;;;1.77;;
44222;SDS011;29895;48.804;9.386;2024-02-26T09:38:34;3.92;;;2.20;;
44222;SDS011;29895;48.804;9.386;2024-02-26T09:41:02;4.63;;;2.30;;
44222;SDS011;29895;48.804;9.386;2024-02-26T09:43:34;4.45;;;2.08;;
44222;SDS011;29895;48.804;9.386;2024-02-26T09:46:04;5.28;;;1.92;;
44222;SDS011;29895;48.804;9.386;2024-02-26T09:48:31;3.97;;;2.20;;
44222;SDS011;29895;48.804;9.386;2024-02-26T09:50:59;6.00;;;2.80;;
44222;SDS011;29895;48.804;9.386;2024-02-26T09:53:27;6.40;;;2.40;;
44222;SDS011;29895;48.804;9.386;2024-02-26T09:55:58;4.60;;;2.13;;
44222;SDS011;29895;48.804;9.386;2024-02-26T09:58:24;4.10;;;2.50;;
44222;SDS011;29895;48.804;9.386;2024-02-26T10:00:55;5.43;;;2.20;;
44222;SDS011;29895;48.804;9.386;2024-02-26T10:03:28;4.57;;;2.33;;
44222;SDS011;29895;48.804;9.386;2024-02-26T10:05:59;3.97;;;2.88;;
44222;SDS011;29895;48.804;9.386;2024-02-26T10:08:27;4.43;;;2.70;;
44222;SDS011;29895;48.804;9.386;2024-02-26T10:10:54;6.70;;;2.67;;
44222;SDS011;29895;48.804;9.386;2024-02-26T10:13:21;3.72;;;2.30;;
44222;SDS011;29895;48.804;9.386;2024-02-26T10:15:48;3.63;;;2.67;;
44222;SDS011;29895;48.804;9.386;2024-02-26T10:18:13;4.47;;;2.65;;
44222;SDS011;29895;48.804;9.386;2024-02-26T10:20:39;3.72;;;2.17;;
44222;SDS011;29895;48.804;9.386;2024-02-26T10:23:05;4.70;;;2.83;;
44222;SDS011;29895;48.804;9.386;2024-02-26T10:25:31;3.60;;;2.05;;
44222;SDS011;29895;48.804;9.386;2024-02-26T10:28:00;3.78;;;2.05;;
44222;SDS011;29895;48.804;9.386;2024-02-26T10:30:29;6.63;;;2.58;;
44222;SDS011;29895;48.804;9.386;2024-02-26T10:32:56;4.78;;;2.45;;
44222;SDS011;29895;48.804;9.386;2024-02-26T10:35:22;5.63;;;2.08;;
44222;SDS011;29895;48.804;9.386;2024-02-26T10:37:49;5.03;;;2.63;;
44222;SDS011;29895;48.804;9.386;2024-02-26T10:40:15;8.57;;;3.28;;
44222;SDS011;29895;48.804;9.386;2024-02-26T10:42:42;5.00;;;2.63;;
44222;SDS011;29895;48.804;9.386;2024-02-26T10:45:08;5.45;;;2.50;;
44222;SDS011;29895;48.804;9.386;2024-02-26T10:47:38;7.25;;;2.85;;
44222;SDS011;29895;48.804;9.386;2024-02-26T10:50:06;7.07;;;2.35;;
44222;SDS011;29895;48.804;9.386;2024-02-26T10:52:33;4.32;;;2.28;;
44222;SDS011;29895;48.804;9.386;2024-02-26T10:55:01;6.15;;;2.45;;
44222;SDS011;29895;48.804;9.386;2024-02-26T10:57:29;4.72;;;2.47;;
44222;SDS011;29895;48.804;9.386;2024-02-26T10:59:59;8.10;;;2.42;;
44222;SDS011;29895;48.804;9.386;2024-02-26T11:02:29;5.93;;;2.20;;
44222;SDS011;29895;48.804;9.386;2024-02-26T11:05:00;3.38;;;1.75;;
44222;SDS011;29895;48.804;9.386;2024-02-26T11:07:29;3.47;;;2.15;;
44222;SDS011;29895;48.804;9.386;2024-02-26T11:09:55;2.15;;;1.30;;
44222;SDS011;29895;48.804;9.386;2024-02-26T11:12:22;3.42;;;2.22;;
44222;SDS011;29895;48.804;9.386;2024-02-26T11:14:49;4.07;;;2.05;;
44222;SDS011;29895;48.804;9.386;2024-02-26T11:17:19;5.43;;;1.95;;
44222;SDS011;29895;48.804;9.386;2024-02-26T11:19:48;3.30;;;1.70;;
44222;SDS011;29895;48.804;9.386;2024-02-26T11:22:16;3.28;;;1.85;;
44222;SDS011;29895;48.804;9.386;2024-02-26T11:24:42;3.08;;;1.73;;
44222;SDS011;29895;48.804;9.386;2024-02-26T11:27:09;2.47;;;1.50;;
44222;SDS011;29895;48.804;9.386;2024-02-26T11:29:41;5.38;;;1.70;;
44222;SDS011;29895;48.804;9.386;2024-02-26T11:32:12;5.60;;;1.58;;
44222;SDS011;29895;48.804;9.386;2024-02-26T11:34:38;3.15;;;1.67;;
44222;SDS011;29895;48.804;9.386;2024-02-26T11:37:10;2.25;;;1.35;;
44222;SDS011;29895;48.804;9.386;2024-02-26T11:39:37;4.22;;;1.20;;
44222;SDS011;29895;48.804;9.386;2024-02-26T11:42:08;1.63;;;1.23;;
44222;SDS011;29895;48.804;9.386;2024-02-26T11:44:35;2.67;;;1.00;;
44222;SDS011;29895;48.804;9.386;2024-02-26T11:47:13;2.17;;;1.10;;
44222;SDS011;29895;48.804;9.386;2024-02-26T11:49:42;3.75;;;1.10;;
44222;SDS011;29895;48.804;9.386;2024-02-26T11:52:08;2.15;;;1.23;;
44222;SDS011;29895;48.804;9.386;2024-02-26T11:57:23;1.88;;;1.30;;
44222;SDS011;29895;48.804;9.386;2024-02-26T12:02:45;3.20;;;1.45;;
44222;SDS011;29895;48.804;9.386;2024-02-26T12:05:13;1.90;;;1.30;;
44222;SDS011;29895;48.804;9.386;2024-02-26T12:07:48;7.45;;;1.77;;
44222;SDS011;29895;48.804;9.386;2024-02-26T12:10:15;3.85;;;1.25;;
44222;SDS011;29895;48.804;9.386;2024-02-26T12:12:47;4.53;;;1.42;;
44222;SDS011;29895;48.804;9.386;2024-02-26T12:15:12;2.70;;;0.75;;
44222;SDS011;29895;48.804;9.386;2024-02-26T12:17:40;5.82;;;1.55;;
44222;SDS011;29895;48.804;9.386;2024-02-26T12:20:09;3.58;;;1.85;;
44222;SDS011;29895;48.804;9.386;2024-02-26T12:22:36;2.17;;;1.30;;
44222;SDS011;29895;48.804;9.386;2024-02-26T12:25:04;1.92;;;1.50;;
44222;SDS011;29895;48.804;9.386;2024-02-26T12:27:30;3.28;;;1.45;;
44222;SDS011;29895;48.804;9.386;2024-02-26T12:29:56;1.40;;;1.00;;
44222;SDS011;29895;48.804;9.386;2024-02-26T12:32:22;3.83;;;1.40;;
44222;SDS011;29895;48.804;9.386;2024-02-26T12:34:48;3.70;;;1.40;;
44222;SDS011;29895;48.804;9.386;2024-02-26T12:37:15;3.45;;;1.10;;
44222;SDS011;29895;48.804;9.386;2024-02-26T12:39:41;1.48;;;1.08;;
44222;SDS011;29895;48.804;9.386;2024-02-26T12:42:07;1.92;;;0.88;;
44222;SDS011;29895;48.804;9.386;2024-02-26T12:44:34;3.08;;;1.15;;
44222;SDS011;29895;48.804;9.386;2024-02-26T12:47:03;3.25;;;1.17;;
44222;SDS011;29895;48.804;9.386;2024-02-26T12:49:30;2.35;;;1.20;;
44222;SDS011;29895;48.804;9.386;2024-02-26T12:51:56;4.47;;;1.35;;
44222;SDS011;29895;48.804;9.386;2024-02-26T12:54:28;2.67;;;1.50;;
44222;SDS011;29895;48.804;9.386;2024-02-26T12:56:58;5.75;;;2.10;;
44222;SDS011;29895;48.804;9.386;2024-02-26T12:59:27;2.75;;;1.10;;
44222;SDS011;29895;48.804;9.386;2024-02-26T13:01:53;2.80;;;1.50;;
44222;SDS011;29895;48.804;9.386;2024-02-26T13:04:19;3.58;;;1.70;;
44222;SDS011;29895;48.804;9.386;2024-02-26T13:06:45;7.32;;;3.53;;
44222;SDS011;29895;48.804;9.386;2024-02-26T13:09:12;6.53;;;2.65;;
44222;SDS011;29895;48.804;9.386;2024-02-26T13:11:41;5.55;;;2.42;;
44222;SDS011;29895;48.804;9.386;2024-02-26T13:14:07;5.30;;;2.28;;
44222;SDS011;29895;48.804;9.386;2024-02-26T13:16:33;6.07;;;3.30;;
44222;SDS011;29895;48.804;9.386;2024-02-26T13:19:11;5.80;;;3.42;;
44222;SDS011;29895;48.804;9.386;2024-02-26T13:21:36;3.53;;;2.13;;
44222;SDS011;29895;48.804;9.386;2024-02-26T13:24:02;5.70;;;2.38;;
44222;SDS011;29895;48.804;9.386;2024-02-26T13:26:28;3.85;;;2.50;;
44222;SDS011;29895;48.804;9.386;2024-02-26T13:29:00;6.28;;;2.58;;
44222;SDS011;29895;48.804;9.386;2024-02-26T13:31:28;6.60;;;2.08;;
44222;SDS011;29895;48.804;9.386;2024-02-26T13:33:53;3.65;;;1.73;;
44222;SDS011;29895;48.804;9.386;2024-02-26T13:36:21;3.80;;;1.75;;
44222;SDS011;29895;48.804;9.386;2024-02-26T13:38:53;5.65;;;2.72;;
44222;SDS011;29895;48.804;9.386;2024-02-26T13:41:23;6.50;;;3.20;;
44222;SDS011;29895;48.804;9.386;2024-02-26T13:43:48;3.80;;;2.50;;
44222;SDS011;29895;48.804;9.386;2024-02-26T13:46:15;3.92;;;1.95;;
44222;SDS011;29895;48.804;9.386;2024-02-26T13:48:42;7.85;;;3.58;;
44222;SDS011;29895;48.804;9.386;2024-02-26T13:51:08;9.98;;;3.92;;
44222;SDS011;29895;48.804;9.386;2024-02-26T13:53:35;6.47;;;2.53;;
44222;SDS011;29895;48.804;9.386;2024-02-26T13:56:01;6.47;;;3.08;;
44222;SDS011;29895;48.804;9.386;2024-02-26T13:58:30;6.43;;;2.00;;
44222;SDS011;29895;48.804;9.386;2024-02-26T14:00:56;3.67;;;1.85;;
44222;SDS011;29895;48.804;9.386;2024-02-26T14:03:21;2.85;;;1.70;;
44222;SDS011;29895;48.804;9.386;2024-02-26T14:05:47;5.78;;;2.00;;
44222;SDS011;29895;48.804;9.386;2024-02-26T14:08:14;2.72;;;1.42;;
44222;SDS011;29895;48.804;9.386;2024-02-26T14:10:40;8.82;;;1.80;;
44222;SDS011;29895;48.804;9.386;2024-02-26T14:13:05;1.95;;;1.08;;
44222;SDS011;29895;48.804;9.386;2024-02-26T14:15:31;4.78;;;1.83;;
44222;SDS011;29895;48.804;9.386;2024-02-26T14:17:57;2.58;;;1.30;;
44222;SDS011;29895;48.804;9.386;2024-02-26T14:20:23;4.47;;;1.80;;
44222;SDS011;29895;48.804;9.386;2024-02-26T14:22:50;2.55;;;1.70;;
44222;SDS011;29895;48.804;9.386;2024-02-26T14:25:18;4.25;;;1.90;;
44222;SDS011;29895;48.804;9.386;2024-02-26T14:27:44;3.05;;;1.50;;
44222;SDS011;29895;48.804;9.386;2024-02-26T14:30:11;3.13;;;1.70;;
44222;SDS011;29895;48.804;9.386;2024-02-26T14:32:37;2.40;;;1.30;;
44222;SDS011;29895;48.804;9.386;2024-02-26T14:35:06;3.63;;;1.80;;
44222;SDS011;29895;48.804;9.386;2024-02-26T14:37:34;2.40;;;1.60;;
44222;SDS011;29895;48.804;9.386;2024-02-26T14:40:00;2.88;;;1.30;;
44222;SDS011;29895;48.804;9.386;2024-02-26T14:42:27;3.33;;;1.40;;
44222;SDS011;29895;48.804;9.386;2024-02-26T14:44:53;4.95;;;1.73;;
44222;SDS011;29895;48.804;9.386;2024-02-26T14:47:19;3.97;;;1.70;;
44222;SDS011;29895;48.804;9.386;2024-02-26T14:49:45;4.00;;;1.90;;